Flight Track Log - Related Links

Times and Time Zones

All times are in EDT time to prevent confusion due to time zone crossing. See the EJA131 flight status page for this flight to view local times or setup timezone preferences in your user account.

Time Position Orientation Groundspeed Altitude Reporting Facility
EDT Latitude Longitude Course Direction KTS MPH feet Rate Location/Type
Thu 12:33:53 PM 25.3408 -80.2639 339° North 132 152 1,200  Level Miami Center
Thu 12:35:00 PM 25.4699 -80.3050 347° North  Level FlightAware Approximate
Thu 12:35:43 PM 25.4361 -80.3033 347° North 211 243 3,000  Level Miami Center
Thu 12:36:27 PM 25.4497 -80.3453 290° West 227 261 3,600 1,327 Climbing Miami Center
Thu 12:37:27 PM 25.4419 -80.4047 262° West 264 304 5,300 2,050 Climbing Miami Center
Thu 12:38:27 PM 25.4631 -80.4906 285° West 281 323 7,700 2,400 Climbing Miami Center
Thu 12:39:27 PM 25.5150 -80.5819 302° West 290 334 10,100 2,444 Climbing Miami Center
Thu 12:39:48 PM 25.5228 -80.6028 292° West 296 341 11,000 1,900 Climbing Miami Center
Thu 12:40:27 PM 25.5489 -80.6450 304° West 307 353 12,000 1,929 Climbing Miami Center
Thu 12:40:44 PM 25.5669 -80.6756 303° West 310 357 12,800 2,000 Climbing Miami Center
Thu 12:41:27 PM 25.6289 -80.7006 340° North 318 366 14,000 1,770 Climbing Miami Center
Thu 12:41:45 PM 25.6497 -80.6989 North 324 373 14,600 1,800 Climbing Miami Center
Thu 12:42:27 PM 25.7042 -80.6936 North 332 382 15,800 765 Climbing Miami Center
Thu 12:43:27 PM 25.8014 -80.6575 18° North 379 436 15,900 138 Climbing Miami Center
Thu 12:43:54 PM 25.8500 -80.6314 26° Northeast 389 448 16,000  Climbing Miami Center
Thu 12:44:27 PM 25.9072 -80.5986 27° Northeast 386 444 15,900 -65 Descending Miami Center
Thu 12:45:27 PM 26.0128 -80.5581 19° North 429 494 15,900 1,000 Level Miami Center
Thu 12:46:27 PM 26.1189 -80.5658 356° North 389 448 17,900 1,750 Climbing Miami Center
Thu 12:47:27 PM 26.2233 -80.5714 357° North 379 436 19,400 1,600 Climbing Miami Center
Thu 12:48:27 PM 26.3192 -80.5836 353° North 361 415 21,100 1,750 Climbing Miami Center
Thu 12:49:27 PM 26.4211 -80.5892 357° North 361 415 22,900 950 Climbing Miami Center
Thu 12:50:27 PM 26.5256 -80.5972 356° North 367 422 23,000 50 Climbing Miami Center
Thu 12:51:27 PM 26.6356 -80.6192 350° North 392 451 23,000  Level Miami Center
Thu 12:52:27 PM 26.7453 -80.6578 343° North 399 459 23,000  Level Miami Center
Thu 12:53:27 PM 26.8569 -80.7008 341° North 417 480 23,000  Level Miami Center
Thu 12:54:27 PM 26.9706 -80.7467 340° North 422 486 23,000  Level Miami Center
Thu 12:55:27 PM 27.0842 -80.7878 342° North 422 486 23,000  Level Miami Center
Thu 12:56:27 PM 27.1958 -80.8289 342° North 422 486 23,000  Level Miami Center
Thu 12:57:27 PM 27.3097 -80.8678 343° North 422 486 23,000  Level Miami Center
Thu 12:58:27 PM 27.4233 -80.9069 343° North 422 486 23,000  Level Miami Center
Thu 12:59:27 PM 27.5347 -80.9506 341° North 422 486 23,000  Level Miami Center
Thu 01:00:27 PM 27.6464 -80.9919 342° North 422 486 23,000  Level Miami Center
Thu 01:01:27 PM 27.7600 -81.0361 341° North 422 486 23,000  Level Miami Center
Thu 01:02:27 PM 27.8733 -81.0778 342° North 422 486 23,000  Level Miami Center
Thu 01:03:27 PM 27.9869 -81.1219 341° North 422 486 23,000  Level Miami Center
Thu 01:04:27 PM 28.0881 -81.1611 341° North 427 491 23,000  Level Miami Center
Thu 01:05:27 PM 28.1994 -81.2053 341° North 421 484 23,000  Level Miami Center
Thu 01:07:52 PM 28.4678 -81.3058 342° North 422 486 23,000  Level Jacksonville Center
Thu 01:08:52 PM 28.5789 -81.3511 340° North 422 486 23,000 -300 Level Jacksonville Center
Thu 01:09:52 PM 28.6900 -81.3944 341° North 427 491 22,400 -800 Descending Jacksonville Center
Thu 01:10:52 PM 28.8050 -81.4142 351° North 420 483 21,400 -1,100 Descending Jacksonville Center
Thu 01:11:52 PM 28.9197 -81.4053 North 413 475 20,200 -1,200 Descending Jacksonville Center
Thu 01:12:52 PM 29.0344 -81.3964 North 403 464 19,000 -1,515 Descending Jacksonville Center
Thu 01:13:31 PM 29.1158 -81.3928 North 412 474 17,700 -1,600 Descending Jacksonville Center
Thu 01:13:52 PM 29.1469 -81.3900 North 403 464 17,400 -1,704 Descending Jacksonville Center
Thu 01:14:52 PM 29.2556 -81.3789 North 397 457 15,400 -2,114 Descending Jacksonville Center
Thu 01:15:20 PM 29.3161 -81.3803 359° North 378 435 14,300 -2,200 Descending Jacksonville Center
Thu 01:15:52 PM 29.3578 -81.3772 North 381 438 13,200 -2,557 Descending Jacksonville Center
Thu 01:16:21 PM 29.4161 -81.3717 North 344 396 11,700 -2,700 Descending Jacksonville Center
Thu 01:16:52 PM 29.4517 -81.3661 North 356 410 10,500 -2,164 Descending Jacksonville Center
Thu 01:17:22 PM 29.5036 -81.3656 North 313 360 9,500 -1,800 Descending Jacksonville Center
Thu 01:17:52 PM 29.5433 -81.3647 North 322 371 8,700 -1,770 Descending Jacksonville Center
Thu 01:18:23 PM 29.5831 -81.3617 North 267 307 7,700 -2,182 Descending Jacksonville Center
Thu 01:18:47 PM 29.6164 -81.3636 357° North 262 302 6,700 -2,250 Descending Jacksonville Center
Thu 01:19:11 PM 29.6456 -81.3656 357° North 257 296 5,900 -1,754 Descending Jacksonville Center
Thu 01:19:52 PM 29.6833 -81.3722 351° North 262 302 4,800 -1,869 Descending Jacksonville Center
Thu 01:20:12 PM 29.7125 -81.3742 357° North 248 285 4,000 -1,000 Descending Jacksonville Center
Thu 01:20:52 PM 29.7481 -81.3711 North 243 280 3,800 -197 Descending Jacksonville Center
Thu 01:21:13 PM 29.7708 -81.3611 21° North 193 222 3,800 -500 Level Jacksonville Center
Thu 01:21:52 PM 29.8042 -81.3511 15° North 215 247 3,300 -984 Descending Jacksonville Center
Thu 01:22:14 PM 29.8311 -81.3436 14° North 228 262 2,800 -1,400 Descending Jacksonville Center
Thu 01:22:52 PM 29.8581 -81.3264 29° Northeast 210 242 1,900 -1,355 Descending Jacksonville Center
Thu 01:23:16 PM 29.8892 -81.3092 26° Northeast 224 258 1,400 -700 Descending Jacksonville Center
Thu 01:23:52 PM 29.9100 -81.3014 18° North 204 235 1,200 -600 Descending Jacksonville Center
Thu 01:24:16 PM 29.9267 -81.2989 North 165 190 800 -400 Descending Jacksonville Center
Thu 01:24:52 PM 29.9661 -81.2792 23° Northeast 195 224 800  Level Jacksonville Center
Thu 01:26:00 PM 29.9592 -81.3397 333° Northwest  Level Estimated
Thu 01:33:00 PM 29.9592 -81.3397 161° South  Level Estimated

Login

Don't have an account? Register now (free) for customized features, flight alerts, and more!